sensor_id;sensor_type;location;lat;lon;timestamp;P1;durP1;ratioP1;P2;durP2;ratioP2
68353;SDS011;55274;43.060;25.618;2023-02-28T00:01:24;14.95;;;8.35;;
68353;SDS011;55274;43.060;25.618;2023-02-28T00:03:51;13.98;;;7.90;;
68353;SDS011;55274;43.060;25.618;2023-02-28T00:06:17;15.15;;;8.30;;
68353;SDS011;55274;43.060;25.618;2023-02-28T00:08:42;14.50;;;8.07;;
68353;SDS011;55274;43.060;25.618;2023-02-28T00:11:09;17.25;;;8.52;;
68353;SDS011;55274;43.060;25.618;2023-02-28T00:13:38;16.10;;;9.15;;
68353;SDS011;55274;43.060;25.618;2023-02-28T00:16:06;18.85;;;9.27;;
68353;SDS011;55274;43.060;25.618;2023-02-28T00:18:34;17.25;;;8.88;;
68353;SDS011;55274;43.060;25.618;2023-02-28T00:21:00;16.02;;;8.65;;
68353;SDS011;55274;43.060;25.618;2023-02-28T00:23:26;16.52;;;8.95;;
68353;SDS011;55274;43.060;25.618;2023-02-28T00:25:52;17.63;;;8.95;;
68353;SDS011;55274;43.060;25.618;2023-02-28T00:28:19;18.13;;;9.70;;
68353;SDS011;55274;43.060;25.618;2023-02-28T00:30:46;18.10;;;9.13;;
68353;SDS011;55274;43.060;25.618;2023-02-28T00:33:11;18.95;;;8.52;;
68353;SDS011;55274;43.060;25.618;2023-02-28T00:35:37;14.60;;;8.48;;
68353;SDS011;55274;43.060;25.618;2023-02-28T00:38:03;12.32;;;7.93;;
68353;SDS011;55274;43.060;25.618;2023-02-28T00:40:29;17.33;;;8.52;;
68353;SDS011;55274;43.060;25.618;2023-02-28T00:42:55;18.15;;;9.82;;
68353;SDS011;55274;43.060;25.618;2023-02-28T00:45:21;16.00;;;8.90;;
68353;SDS011;55274;43.060;25.618;2023-02-28T00:47:46;19.35;;;9.73;;
68353;SDS011;55274;43.060;25.618;2023-02-28T00:50:16;15.45;;;8.55;;
68353;SDS011;55274;43.060;25.618;2023-02-28T00:52:43;17.00;;;9.07;;
68353;SDS011;55274;43.060;25.618;2023-02-28T00:55:09;17.55;;;8.95;;
68353;SDS011;55274;43.060;25.618;2023-02-28T00:57:35;17.08;;;8.82;;
68353;SDS011;55274;43.060;25.618;2023-02-28T01:00:01;16.88;;;9.27;;
68353;SDS011;55274;43.060;25.618;2023-02-28T01:02:28;17.85;;;9.43;;
68353;SDS011;55274;43.060;25.618;2023-02-28T01:04:54;19.92;;;10.77;;
68353;SDS011;55274;43.060;25.618;2023-02-28T01:07:22;19.75;;;10.02;;
68353;SDS011;55274;43.060;25.618;2023-02-28T01:09:48;21.67;;;10.63;;
68353;SDS011;55274;43.060;25.618;2023-02-28T01:12:14;21.67;;;10.73;;
68353;SDS011;55274;43.060;25.618;2023-02-28T01:14:40;21.10;;;10.45;;
68353;SDS011;55274;43.060;25.618;2023-02-28T01:17:06;18.50;;;9.68;;
68353;SDS011;55274;43.060;25.618;2023-02-28T01:19:32;21.20;;;10.75;;
68353;SDS011;55274;43.060;25.618;2023-02-28T01:22:02;23.25;;;11.23;;
68353;SDS011;55274;43.060;25.618;2023-02-28T01:24:29;17.70;;;10.23;;
68353;SDS011;55274;43.060;25.618;2023-02-28T01:26:54;21.83;;;11.15;;
68353;SDS011;55274;43.060;25.618;2023-02-28T01:29:20;19.75;;;9.82;;
68353;SDS011;55274;43.060;25.618;2023-02-28T01:31:46;20.60;;;10.55;;
68353;SDS011;55274;43.060;25.618;2023-02-28T01:34:12;21.40;;;10.23;;
68353;SDS011;55274;43.060;25.618;2023-02-28T01:36:38;20.20;;;10.30;;
68353;SDS011;55274;43.060;25.618;2023-02-28T01:39:03;20.52;;;10.85;;
68353;SDS011;55274;43.060;25.618;2023-02-28T01:41:30;20.02;;;10.48;;
68353;SDS011;55274;43.060;25.618;2023-02-28T01:47:06;18.83;;;10.10;;
68353;SDS011;55274;43.060;25.618;2023-02-28T01:49:32;22.02;;;11.02;;
68353;SDS011;55274;43.060;25.618;2023-02-28T01:51:57;20.48;;;10.35;;
68353;SDS011;55274;43.060;25.618;2023-02-28T01:54:30;20.63;;;10.65;;
68353;SDS011;55274;43.060;25.618;2023-02-28T01:57:00;18.15;;;10.15;;
68353;SDS011;55274;43.060;25.618;2023-02-28T01:59:35;20.52;;;9.95;;
68353;SDS011;55274;43.060;25.618;2023-02-28T02:02:12;18.48;;;9.82;;
68353;SDS011;55274;43.060;25.618;2023-02-28T02:04:41;20.75;;;10.07;;
68353;SDS011;55274;43.060;25.618;2023-02-28T02:07:18;22.10;;;10.40;;
68353;SDS011;55274;43.060;25.618;2023-02-28T02:09:44;17.92;;;9.57;;
68353;SDS011;55274;43.060;25.618;2023-02-28T02:12:28;18.13;;;9.70;;
68353;SDS011;55274;43.060;25.618;2023-02-28T02:15:14;18.83;;;9.68;;
68353;SDS011;55274;43.060;25.618;2023-02-28T02:17:51;19.25;;;10.15;;
68353;SDS011;55274;43.060;25.618;2023-02-28T02:20:29;19.55;;;9.55;;
68353;SDS011;55274;43.060;25.618;2023-02-28T02:26:13;19.13;;;10.90;;
68353;SDS011;55274;43.060;25.618;2023-02-28T02:36:39;16.38;;;8.65;;
68353;SDS011;55274;43.060;25.618;2023-02-28T02:42:23;21.15;;;9.05;;
68353;SDS011;55274;43.060;25.618;2023-02-28T02:48:03;17.95;;;9.45;;
68353;SDS011;55274;43.060;25.618;2023-02-28T02:50:35;17.92;;;8.63;;
68353;SDS011;55274;43.060;25.618;2023-02-28T02:53:04;16.85;;;8.57;;
68353;SDS011;55274;43.060;25.618;2023-02-28T02:55:33;16.45;;;7.93;;
68353;SDS011;55274;43.060;25.618;2023-02-28T02:58:03;19.38;;;8.45;;
68353;SDS011;55274;43.060;25.618;2023-02-28T03:00:33;15.02;;;8.02;;
68353;SDS011;55274;43.060;25.618;2023-02-28T03:03:02;15.80;;;7.40;;
68353;SDS011;55274;43.060;25.618;2023-02-28T03:05:34;14.00;;;6.88;;
68353;SDS011;55274;43.060;25.618;2023-02-28T03:08:07;15.32;;;7.05;;
68353;SDS011;55274;43.060;25.618;2023-02-28T03:10:40;14.32;;;7.32;;
68353;SDS011;55274;43.060;25.618;2023-02-28T03:18:40;12.70;;;6.32;;
68353;SDS011;55274;43.060;25.618;2023-02-28T03:21:36;14.73;;;6.65;;
68353;SDS011;55274;43.060;25.618;2023-02-28T03:24:10;13.77;;;6.20;;
68353;SDS011;55274;43.060;25.618;2023-02-28T03:26:44;12.25;;;6.60;;
68353;SDS011;55274;43.060;25.618;2023-02-28T03:29:20;14.18;;;6.15;;
68353;SDS011;55274;43.060;25.618;2023-02-28T03:32:04;12.10;;;6.20;;
68353;SDS011;55274;43.060;25.618;2023-02-28T03:34:45;15.32;;;6.40;;
68353;SDS011;55274;43.060;25.618;2023-02-28T03:37:33;13.25;;;6.50;;
68353;SDS011;55274;43.060;25.618;2023-02-28T03:40:04;14.15;;;6.93;;
68353;SDS011;55274;43.060;25.618;2023-02-28T03:42:38;13.60;;;6.75;;
68353;SDS011;55274;43.060;25.618;2023-02-28T03:45:16;14.02;;;6.47;;
68353;SDS011;55274;43.060;25.618;2023-02-28T03:47:52;11.82;;;6.07;;
68353;SDS011;55274;43.060;25.618;2023-02-28T03:50:34;12.55;;;5.95;;
68353;SDS011;55274;43.060;25.618;2023-02-28T03:53:19;12.65;;;6.00;;
68353;SDS011;55274;43.060;25.618;2023-02-28T03:55:51;11.32;;;6.10;;
68353;SDS011;55274;43.060;25.618;2023-02-28T03:58:41;12.20;;;6.03;;
68353;SDS011;55274;43.060;25.618;2023-02-28T04:01:16;13.18;;;6.43;;
68353;SDS011;55274;43.060;25.618;2023-02-28T04:03:49;11.15;;;5.78;;
68353;SDS011;55274;43.060;25.618;2023-02-28T04:06:19;12.52;;;6.45;;
68353;SDS011;55274;43.060;25.618;2023-02-28T04:08:47;13.93;;;6.40;;
68353;SDS011;55274;43.060;25.618;2023-02-28T04:13:57;13.52;;;6.47;;
68353;SDS011;55274;43.060;25.618;2023-02-28T04:16:23;13.60;;;6.05;;
68353;SDS011;55274;43.060;25.618;2023-02-28T04:18:49;12.45;;;6.35;;
68353;SDS011;55274;43.060;25.618;2023-02-28T04:21:14;14.23;;;6.53;;
68353;SDS011;55274;43.060;25.618;2023-02-28T04:23:40;15.30;;;6.32;;
68353;SDS011;55274;43.060;25.618;2023-02-28T04:26:06;13.63;;;5.85;;
68353;SDS011;55274;43.060;25.618;2023-02-28T04:28:32;12.50;;;5.97;;
68353;SDS011;55274;43.060;25.618;2023-02-28T04:31:00;19.42;;;7.10;;
68353;SDS011;55274;43.060;25.618;2023-02-28T04:33:27;12.07;;;5.78;;
68353;SDS011;55274;43.060;25.618;2023-02-28T04:36:00;13.45;;;5.57;;
68353;SDS011;55274;43.060;25.618;2023-02-28T04:38:28;33.10;;;6.82;;
68353;SDS011;55274;43.060;25.618;2023-02-28T04:40:56;17.90;;;6.03;;
68353;SDS011;55274;43.060;25.618;2023-02-28T04:43:23;25.67;;;6.60;;
68353;SDS011;55274;43.060;25.618;2023-02-28T04:45:49;22.83;;;6.07;;
68353;SDS011;55274;43.060;25.618;2023-02-28T04:48:14;17.42;;;7.15;;
68353;SDS011;55274;43.060;25.618;2023-02-28T04:50:40;15.38;;;5.72;;
68353;SDS011;55274;43.060;25.618;2023-02-28T04:53:06;12.98;;;5.78;;
68353;SDS011;55274;43.060;25.618;2023-02-28T04:55:32;11.98;;;5.50;;
68353;SDS011;55274;43.060;25.618;2023-02-28T04:57:57;11.38;;;5.88;;
68353;SDS011;55274;43.060;25.618;2023-02-28T05:00:23;13.25;;;5.82;;
68353;SDS011;55274;43.060;25.618;2023-02-28T05:02:50;17.88;;;6.00;;
68353;SDS011;55274;43.060;25.618;2023-02-28T05:05:15;14.82;;;5.38;;
68353;SDS011;55274;43.060;25.618;2023-02-28T05:07:43;15.30;;;5.70;;
68353;SDS011;55274;43.060;25.618;2023-02-28T05:10:10;12.68;;;5.45;;
68353;SDS011;55274;43.060;25.618;2023-02-28T05:12:36;10.32;;;5.22;;
68353;SDS011;55274;43.060;25.618;2023-02-28T05:15:04;9.50;;;4.38;;
68353;SDS011;55274;43.060;25.618;2023-02-28T05:17:30;12.48;;;5.82;;
68353;SDS011;55274;43.060;25.618;2023-02-28T05:19:56;11.70;;;5.57;;
68353;SDS011;55274;43.060;25.618;2023-02-28T05:22:22;13.32;;;6.10;;
68353;SDS011;55274;43.060;25.618;2023-02-28T05:24:48;9.68;;;4.93;;
68353;SDS011;55274;43.060;25.618;2023-02-28T05:27:14;11.70;;;5.32;;
68353;SDS011;55274;43.060;25.618;2023-02-28T05:29:39;11.07;;;4.60;;
68353;SDS011;55274;43.060;25.618;2023-02-28T05:32:09;9.93;;;4.60;;
68353;SDS011;55274;43.060;25.618;2023-02-28T05:34:36;14.40;;;5.75;;
68353;SDS011;55274;43.060;25.618;2023-02-28T05:37:03;11.30;;;5.82;;
68353;SDS011;55274;43.060;25.618;2023-02-28T05:39:30;10.30;;;5.18;;
68353;SDS011;55274;43.060;25.618;2023-02-28T05:41:56;11.35;;;5.05;;
68353;SDS011;55274;43.060;25.618;2023-02-28T05:44:22;18.17;;;5.57;;
68353;SDS011;55274;43.060;25.618;2023-02-28T05:46:48;10.98;;;5.20;;
68353;SDS011;55274;43.060;25.618;2023-02-28T05:49:13;14.40;;;5.32;;
68353;SDS011;55274;43.060;25.618;2023-02-28T05:51:39;13.43;;;5.47;;
68353;SDS011;55274;43.060;25.618;2023-02-28T05:54:05;41.88;;;7.05;;
68353;SDS011;55274;43.060;25.618;2023-02-28T05:56:31;34.20;;;6.88;;
68353;SDS011;55274;43.060;25.618;2023-02-28T05:58:59;14.77;;;5.70;;
68353;SDS011;55274;43.060;25.618;2023-02-28T06:01:35;17.25;;;5.82;;
68353;SDS011;55274;43.060;25.618;2023-02-28T06:04:03;17.35;;;5.53;;
68353;SDS011;55274;43.060;25.618;2023-02-28T06:06:31;26.40;;;6.15;;
68353;SDS011;55274;43.060;25.618;2023-02-28T06:08:59;13.10;;;5.47;;
68353;SDS011;55274;43.060;25.618;2023-02-28T06:11:26;15.48;;;5.43;;
68353;SDS011;55274;43.060;25.618;2023-02-28T06:13:56;13.85;;;6.25;;
68353;SDS011;55274;43.060;25.618;2023-02-28T06:16:24;12.45;;;5.45;;
68353;SDS011;55274;43.060;25.618;2023-02-28T06:18:52;10.77;;;5.38;;
68353;SDS011;55274;43.060;25.618;2023-02-28T06:21:20;12.02;;;5.05;;
68353;SDS011;55274;43.060;25.618;2023-02-28T06:23:46;17.20;;;5.43;;
68353;SDS011;55274;43.060;25.618;2023-02-28T06:26:12;13.98;;;5.82;;
68353;SDS011;55274;43.060;25.618;2023-02-28T06:28:38;11.75;;;5.28;;
68353;SDS011;55274;43.060;25.618;2023-02-28T06:31:07;12.98;;;4.97;;
68353;SDS011;55274;43.060;25.618;2023-02-28T06:33:35;9.73;;;5.10;;
68353;SDS011;55274;43.060;25.618;2023-02-28T06:36:01;12.05;;;5.05;;
68353;SDS011;55274;43.060;25.618;2023-02-28T06:38:28;14.65;;;6.07;;
68353;SDS011;55274;43.060;25.618;2023-02-28T06:40:54;12.70;;;6.15;;
68353;SDS011;55274;43.060;25.618;2023-02-28T06:43:23;13.50;;;6.88;;
68353;SDS011;55274;43.060;25.618;2023-02-28T06:45:50;13.63;;;6.05;;
68353;SDS011;55274;43.060;25.618;2023-02-28T06:48:16;10.25;;;4.80;;
68353;SDS011;55274;43.060;25.618;2023-02-28T06:50:42;9.38;;;5.03;;
68353;SDS011;55274;43.060;25.618;2023-02-28T06:53:08;11.63;;;4.75;;
68353;SDS011;55274;43.060;25.618;2023-02-28T06:55:34;7.05;;;4.15;;
68353;SDS011;55274;43.060;25.618;2023-02-28T06:58:02;11.82;;;5.80;;
68353;SDS011;55274;43.060;25.618;2023-02-28T07:00:28;15.55;;;4.70;;
68353;SDS011;55274;43.060;25.618;2023-02-28T07:02:53;18.75;;;5.63;;
68353;SDS011;55274;43.060;25.618;2023-02-28T07:05:20;9.38;;;4.72;;
68353;SDS011;55274;43.060;25.618;2023-02-28T07:07:46;17.45;;;5.40;;
68353;SDS011;55274;43.060;25.618;2023-02-28T07:10:12;10.10;;;5.03;;
68353;SDS011;55274;43.060;25.618;2023-02-28T07:12:39;10.98;;;4.82;;
68353;SDS011;55274;43.060;25.618;2023-02-28T07:15:05;12.18;;;5.75;;
68353;SDS011;55274;43.060;25.618;2023-02-28T07:17:31;10.77;;;5.25;;
68353;SDS011;55274;43.060;25.618;2023-02-28T07:19:57;9.25;;;4.60;;
68353;SDS011;55274;43.060;25.618;2023-02-28T07:22:23;11.07;;;5.43;;
68353;SDS011;55274;43.060;25.618;2023-02-28T07:24:50;10.38;;;4.45;;
68353;SDS011;55274;43.060;25.618;2023-02-28T07:27:16;7.78;;;4.07;;
68353;SDS011;55274;43.060;25.618;2023-02-28T07:29:49;9.02;;;4.20;;
68353;SDS011;55274;43.060;25.618;2023-02-28T07:32:15;10.80;;;4.63;;
68353;SDS011;55274;43.060;25.618;2023-02-28T07:34:41;8.57;;;4.75;;
68353;SDS011;55274;43.060;25.618;2023-02-28T07:37:07;10.70;;;5.10;;
68353;SDS011;55274;43.060;25.618;2023-02-28T07:39:32;8.38;;;4.25;;
68353;SDS011;55274;43.060;25.618;2023-02-28T07:41:58;6.63;;;3.88;;
68353;SDS011;55274;43.060;25.618;2023-02-28T07:44:25;11.07;;;4.50;;
68353;SDS011;55274;43.060;25.618;2023-02-28T07:46:51;10.10;;;3.95;;
68353;SDS011;55274;43.060;25.618;2023-02-28T07:49:17;12.75;;;4.85;;
68353;SDS011;55274;43.060;25.618;2023-02-28T07:51:43;8.90;;;4.88;;
68353;SDS011;55274;43.060;25.618;2023-02-28T07:54:09;9.63;;;3.80;;
68353;SDS011;55274;43.060;25.618;2023-02-28T07:56:35;9.35;;;4.28;;
68353;SDS011;55274;43.060;25.618;2023-02-28T07:59:01;7.13;;;4.40;;
68353;SDS011;55274;43.060;25.618;2023-02-28T08:01:26;10.48;;;4.22;;
68353;SDS011;55274;43.060;25.618;2023-02-28T08:03:53;12.30;;;4.47;;
68353;SDS011;55274;43.060;25.618;2023-02-28T08:06:21;8.65;;;4.30;;
68353;SDS011;55274;43.060;25.618;2023-02-28T08:11:17;8.63;;;4.43;;
68353;SDS011;55274;43.060;25.618;2023-02-28T08:13:44;10.73;;;4.95;;
68353;SDS011;55274;43.060;25.618;2023-02-28T08:16:10;11.52;;;4.35;;
68353;SDS011;55274;43.060;25.618;2023-02-28T08:18:42;12.38;;;4.50;;
68353;SDS011;55274;43.060;25.618;2023-02-28T08:21:09;11.85;;;4.55;;
68353;SDS011;55274;43.060;25.618;2023-02-28T08:23:35;11.10;;;4.47;;
68353;SDS011;55274;43.060;25.618;2023-02-28T08:26:01;7.53;;;4.45;;
68353;SDS011;55274;43.060;25.618;2023-02-28T08:28:27;11.35;;;5.60;;
68353;SDS011;55274;43.060;25.618;2023-02-28T08:30:53;10.68;;;4.93;;
68353;SDS011;55274;43.060;25.618;2023-02-28T08:33:19;11.30;;;5.75;;
68353;SDS011;55274;43.060;25.618;2023-02-28T08:35:46;8.80;;;5.07;;
68353;SDS011;55274;43.060;25.618;2023-02-28T08:38:11;17.77;;;7.40;;
68353;SDS011;55274;43.060;25.618;2023-02-28T08:40:37;13.55;;;4.45;;
68353;SDS011;55274;43.060;25.618;2023-02-28T08:43:03;11.40;;;4.72;;
68353;SDS011;55274;43.060;25.618;2023-02-28T08:45:29;8.38;;;4.70;;
68353;SDS011;55274;43.060;25.618;2023-02-28T08:47:55;14.20;;;6.35;;
68353;SDS011;55274;43.060;25.618;2023-02-28T08:50:21;12.38;;;6.22;;
68353;SDS011;55274;43.060;25.618;2023-02-28T08:52:47;13.98;;;7.50;;
68353;SDS011;55274;43.060;25.618;2023-02-28T08:55:13;16.23;;;6.88;;
68353;SDS011;55274;43.060;25.618;2023-02-28T08:57:39;11.13;;;6.88;;
68353;SDS011;55274;43.060;25.618;2023-02-28T09:00:05;14.25;;;7.00;;
68353;SDS011;55274;43.060;25.618;2023-02-28T09:02:31;14.15;;;6.88;;
68353;SDS011;55274;43.060;25.618;2023-02-28T09:04:57;20.23;;;6.97;;
68353;SDS011;55274;43.060;25.618;2023-02-28T09:07:23;12.68;;;6.57;;
68353;SDS011;55274;43.060;25.618;2023-02-28T09:09:50;11.68;;;6.90;;
68353;SDS011;55274;43.060;25.618;2023-02-28T09:12:19;13.35;;;6.40;;
68353;SDS011;55274;43.060;25.618;2023-02-28T09:14:46;12.18;;;6.43;;
68353;SDS011;55274;43.060;25.618;2023-02-28T09:17:12;16.10;;;6.60;;
68353;SDS011;55274;43.060;25.618;2023-02-28T09:19:38;12.52;;;5.78;;
68353;SDS011;55274;43.060;25.618;2023-02-28T09:22:04;12.25;;;6.25;;
68353;SDS011;55274;43.060;25.618;2023-02-28T09:24:29;11.30;;;5.40;;
68353;SDS011;55274;43.060;25.618;2023-02-28T09:26:56;10.15;;;6.80;;
68353;SDS011;55274;43.060;25.618;2023-02-28T09:29:22;11.25;;;5.70;;
68353;SDS011;55274;43.060;25.618;2023-02-28T09:31:48;10.30;;;5.90;;
68353;SDS011;55274;43.060;25.618;2023-02-28T09:34:14;11.07;;;5.93;;
68353;SDS011;55274;43.060;25.618;2023-02-28T09:36:40;10.15;;;5.10;;
68353;SDS011;55274;43.060;25.618;2023-02-28T09:39:06;12.23;;;6.00;;
68353;SDS011;55274;43.060;25.618;2023-02-28T09:41:37;12.48;;;5.60;;
68353;SDS011;55274;43.060;25.618;2023-02-28T09:44:12;16.38;;;6.03;;
68353;SDS011;55274;43.060;25.618;2023-02-28T09:46:48;13.70;;;5.82;;
68353;SDS011;55274;43.060;25.618;2023-02-28T09:49:25;13.07;;;6.30;;
68353;SDS011;55274;43.060;25.618;2023-02-28T09:52:04;11.57;;;6.32;;
68353;SDS011;55274;43.060;25.618;2023-02-28T09:54:35;9.65;;;6.05;;
68353;SDS011;55274;43.060;25.618;2023-02-28T09:57:04;11.48;;;6.05;;
68353;SDS011;55274;43.060;25.618;2023-02-28T10:05:27;10.57;;;5.53;;
68353;SDS011;55274;43.060;25.618;2023-02-28T10:10:35;14.45;;;5.95;;
68353;SDS011;55274;43.060;25.618;2023-02-28T10:13:14;13.93;;;5.88;;
68353;SDS011;55274;43.060;25.618;2023-02-28T10:15:42;8.43;;;4.93;;
68353;SDS011;55274;43.060;25.618;2023-02-28T10:18:11;9.85;;;5.40;;
68353;SDS011;55274;43.060;25.618;2023-02-28T10:20:41;10.32;;;5.35;;
68353;SDS011;55274;43.060;25.618;2023-02-28T10:23:31;12.25;;;5.85;;
68353;SDS011;55274;43.060;25.618;2023-02-28T10:26:20;13.52;;;5.13;;
68353;SDS011;55274;43.060;25.618;2023-02-28T10:28:45;9.55;;;4.95;;
68353;SDS011;55274;43.060;25.618;2023-02-28T10:31:15;12.07;;;5.28;;
68353;SDS011;55274;43.060;25.618;2023-02-28T10:33:44;14.98;;;5.43;;
68353;SDS011;55274;43.060;25.618;2023-02-28T10:36:14;19.75;;;5.32;;
68353;SDS011;55274;43.060;25.618;2023-02-28T10:38:42;10.35;;;4.72;;
68353;SDS011;55274;43.060;25.618;2023-02-28T10:41:13;12.85;;;5.65;;
68353;SDS011;55274;43.060;25.618;2023-02-28T10:43:51;10.80;;;5.28;;
68353;SDS011;55274;43.060;25.618;2023-02-28T10:46:18;8.43;;;4.55;;
68353;SDS011;55274;43.060;25.618;2023-02-28T10:49:06;9.27;;;4.22;;
68353;SDS011;55274;43.060;25.618;2023-02-28T10:51:39;12.93;;;5.70;;
68353;SDS011;55274;43.060;25.618;2023-02-28T10:54:13;11.88;;;5.82;;
68353;SDS011;55274;43.060;25.618;2023-02-28T10:56:42;11.85;;;6.15;;
68353;SDS011;55274;43.060;25.618;2023-02-28T11:04:16;22.98;;;6.88;;
68353;SDS011;55274;43.060;25.618;2023-02-28T11:06:44;14.13;;;6.55;;
68353;SDS011;55274;43.060;25.618;2023-02-28T11:11:57;10.57;;;6.25;;
68353;SDS011;55274;43.060;25.618;2023-02-28T11:14:25;11.20;;;5.93;;
68353;SDS011;55274;43.060;25.618;2023-02-28T11:16:54;15.98;;;7.07;;
68353;SDS011;55274;43.060;25.618;2023-02-28T11:19:31;19.27;;;6.50;;
68353;SDS011;55274;43.060;25.618;2023-02-28T11:22:03;13.73;;;6.00;;
68353;SDS011;55274;43.060;25.618;2023-02-28T11:24:34;11.07;;;6.10;;
68353;SDS011;55274;43.060;25.618;2023-02-28T11:27:16;19.95;;;6.28;;
68353;SDS011;55274;43.060;25.618;2023-02-28T11:29:50;14.15;;;6.30;;
68353;SDS011;55274;43.060;25.618;2023-02-28T11:32:18;17.58;;;7.20;;
68353;SDS011;55274;43.060;25.618;2023-02-28T11:34:46;20.75;;;8.43;;
68353;SDS011;55274;43.060;25.618;2023-02-28T11:37:25;16.85;;;8.77;;
68353;SDS011;55274;43.060;25.618;2023-02-28T11:39:52;26.25;;;10.90;;
68353;SDS011;55274;43.060;25.618;2023-02-28T11:45:15;14.18;;;6.50;;
68353;SDS011;55274;43.060;25.618;2023-02-28T11:48:04;11.38;;;6.13;;
68353;SDS011;55274;43.060;25.618;2023-02-28T12:02:20;16.15;;;7.70;;
68353;SDS011;55274;43.060;25.618;2023-02-28T12:12:37;26.35;;;10.75;;
68353;SDS011;55274;43.060;25.618;2023-02-28T12:28:36;26.75;;;8.73;;
68353;SDS011;55274;43.060;25.618;2023-02-28T12:33:56;25.02;;;10.50;;
68353;SDS011;55274;43.060;25.618;2023-02-28T12:36:26;28.27;;;13.25;;
68353;SDS011;55274;43.060;25.618;2023-02-28T12:38:55;17.80;;;8.85;;
68353;SDS011;55274;43.060;25.618;2023-02-28T12:47:00;20.35;;;10.18;;
68353;SDS011;55274;43.060;25.618;2023-02-28T12:49:38;28.52;;;13.13;;
68353;SDS011;55274;43.060;25.618;2023-02-28T12:52:25;36.20;;;19.92;;
68353;SDS011;55274;43.060;25.618;2023-02-28T12:55:19;22.42;;;9.13;;
68353;SDS011;55274;43.060;25.618;2023-02-28T12:57:49;20.48;;;11.38;;
68353;SDS011;55274;43.060;25.618;2023-02-28T13:00:19;17.52;;;7.53;;
68353;SDS011;55274;43.060;25.618;2023-02-28T13:05:25;17.60;;;7.93;;
68353;SDS011;55274;43.060;25.618;2023-02-28T13:10:37;17.55;;;9.48;;
68353;SDS011;55274;43.060;25.618;2023-02-28T13:13:11;35.22;;;19.15;;
68353;SDS011;55274;43.060;25.618;2023-02-28T13:16:24;48.47;;;24.48;;
68353;SDS011;55274;43.060;25.618;2023-02-28T13:18:43;18.88;;;8.30;;
68353;SDS011;55274;43.060;25.618;2023-02-28T13:21:24;24.05;;;12.30;;
68353;SDS011;55274;43.060;25.618;2023-02-28T13:26:22;20.08;;;10.50;;
68353;SDS011;55274;43.060;25.618;2023-02-28T13:39:48;17.73;;;8.52;;
68353;SDS011;55274;43.060;25.618;2023-02-28T13:47:51;24.70;;;11.02;;
68353;SDS011;55274;43.060;25.618;2023-02-28T14:03:38;19.30;;;9.10;;
68353;SDS011;55274;43.060;25.618;2023-02-28T14:06:35;18.67;;;9.30;;
68353;SDS011;55274;43.060;25.618;2023-02-28T14:09:11;25.55;;;10.80;;
68353;SDS011;55274;43.060;25.618;2023-02-28T14:11:48;20.40;;;10.30;;
68353;SDS011;55274;43.060;25.618;2023-02-28T14:17:03;19.67;;;9.68;;
68353;SDS011;55274;43.060;25.618;2023-02-28T14:19:43;22.23;;;11.20;;
68353;SDS011;55274;43.060;25.618;2023-02-28T14:24:59;19.60;;;11.05;;
68353;SDS011;55274;43.060;25.618;2023-02-28T14:27:45;26.67;;;12.35;;
68353;SDS011;55274;43.060;25.618;2023-02-28T14:30:26;23.70;;;10.40;;
68353;SDS011;55274;43.060;25.618;2023-02-28T14:38:56;20.58;;;9.50;;
68353;SDS011;55274;43.060;25.618;2023-02-28T14:41:32;22.20;;;9.25;;
68353;SDS011;55274;43.060;25.618;2023-02-28T14:44:13;20.00;;;9.27;;
68353;SDS011;55274;43.060;25.618;2023-02-28T14:46:40;19.33;;;8.60;;
68353;SDS011;55274;43.060;25.618;2023-02-28T14:49:27;16.60;;;8.15;;
68353;SDS011;55274;43.060;25.618;2023-02-28T14:52:07;20.05;;;12.98;;
68353;SDS011;55274;43.060;25.618;2023-02-28T14:54:37;19.58;;;8.50;;
68353;SDS011;55274;43.060;25.618;2023-02-28T14:57:03;18.25;;;8.63;;
68353;SDS011;55274;43.060;25.618;2023-02-28T14:59:33;19.00;;;8.43;;
68353;SDS011;55274;43.060;25.618;2023-02-28T15:05:02;16.27;;;8.10;;
68353;SDS011;55274;43.060;25.618;2023-02-28T15:07:38;18.50;;;8.77;;
68353;SDS011;55274;43.060;25.618;2023-02-28T15:10:21;14.45;;;8.15;;
68353;SDS011;55274;43.060;25.618;2023-02-28T15:12:51;17.35;;;8.35;;
68353;SDS011;55274;43.060;25.618;2023-02-28T15:15:18;19.92;;;9.50;;
68353;SDS011;55274;43.060;25.618;2023-02-28T15:17:46;17.63;;;7.93;;
68353;SDS011;55274;43.060;25.618;2023-02-28T15:20:17;16.42;;;7.95;;
68353;SDS011;55274;43.060;25.618;2023-02-28T15:22:44;17.25;;;6.93;;
68353;SDS011;55274;43.060;25.618;2023-02-28T15:25:13;15.63;;;7.05;;
68353;SDS011;55274;43.060;25.618;2023-02-28T15:27:44;16.63;;;6.78;;
68353;SDS011;55274;43.060;25.618;2023-02-28T15:30:17;17.55;;;8.32;;
68353;SDS011;55274;43.060;25.618;2023-02-28T15:35:31;14.15;;;6.65;;
68353;SDS011;55274;43.060;25.618;2023-02-28T15:40:53;21.30;;;9.95;;
68353;SDS011;55274;43.060;25.618;2023-02-28T15:48:24;14.32;;;6.60;;
68353;SDS011;55274;43.060;25.618;2023-02-28T15:51:20;12.35;;;6.35;;
68353;SDS011;55274;43.060;25.618;2023-02-28T15:53:57;14.68;;;6.80;;
68353;SDS011;55274;43.060;25.618;2023-02-28T15:56:38;14.35;;;6.28;;
68353;SDS011;55274;43.060;25.618;2023-02-28T15:59:12;17.30;;;6.95;;
68353;SDS011;55274;43.060;25.618;2023-02-28T16:01:41;15.25;;;7.18;;
68353;SDS011;55274;43.060;25.618;2023-02-28T16:04:17;13.38;;;5.68;;
68353;SDS011;55274;43.060;25.618;2023-02-28T16:06:45;11.77;;;6.07;;
68353;SDS011;55274;43.060;25.618;2023-02-28T16:09:16;18.13;;;8.48;;
68353;SDS011;55274;43.060;25.618;2023-02-28T16:11:52;19.08;;;6.97;;
68353;SDS011;55274;43.060;25.618;2023-02-28T16:14:21;12.00;;;6.28;;
68353;SDS011;55274;43.060;25.618;2023-02-28T16:16:50;12.98;;;6.03;;
68353;SDS011;55274;43.060;25.618;2023-02-28T16:19:18;13.95;;;6.65;;
68353;SDS011;55274;43.060;25.618;2023-02-28T16:21:44;11.02;;;5.95;;
68353;SDS011;55274;43.060;25.618;2023-02-28T16:24:10;12.57;;;6.25;;
68353;SDS011;55274;43.060;25.618;2023-02-28T16:26:37;13.13;;;5.93;;
68353;SDS011;55274;43.060;25.618;2023-02-28T16:29:06;10.32;;;5.65;;
68353;SDS011;55274;43.060;25.618;2023-02-28T16:31:33;12.95;;;6.30;;
68353;SDS011;55274;43.060;25.618;2023-02-28T16:34:01;10.45;;;5.57;;
68353;SDS011;55274;43.060;25.618;2023-02-28T16:36:28;10.48;;;6.20;;
68353;SDS011;55274;43.060;25.618;2023-02-28T16:38:54;8.30;;;4.63;;
68353;SDS011;55274;43.060;25.618;2023-02-28T16:41:22;12.23;;;5.75;;
68353;SDS011;55274;43.060;25.618;2023-02-28T16:43:51;13.40;;;6.03;;
68353;SDS011;55274;43.060;25.618;2023-02-28T16:46:19;17.25;;;7.10;;
68353;SDS011;55274;43.060;25.618;2023-02-28T16:48:46;17.85;;;5.80;;
68353;SDS011;55274;43.060;25.618;2023-02-28T16:51:16;14.93;;;5.72;;
68353;SDS011;55274;43.060;25.618;2023-02-28T16:53:43;10.57;;;4.65;;
68353;SDS011;55274;43.060;25.618;2023-02-28T16:56:12;9.90;;;4.95;;
68353;SDS011;55274;43.060;25.618;2023-02-28T16:58:48;8.73;;;4.50;;
68353;SDS011;55274;43.060;25.618;2023-02-28T17:01:15;13.25;;;5.75;;
68353;SDS011;55274;43.060;25.618;2023-02-28T17:03:47;11.85;;;6.30;;
68353;SDS011;55274;43.060;25.618;2023-02-28T17:06:16;11.10;;;4.85;;
68353;SDS011;55274;43.060;25.618;2023-02-28T17:08:50;7.22;;;4.20;;
68353;SDS011;55274;43.060;25.618;2023-02-28T17:11:17;10.10;;;4.00;;